createdAt,value
2022-12-08T00:02:48.974Z,14.55
2022-12-08T00:08:10.402Z,14.56
2022-12-08T00:13:13.952Z,14.62
2022-12-08T00:18:18.706Z,14.56
2022-12-08T00:23:22.167Z,14.58
2022-12-08T00:28:25.610Z,14.55
2022-12-08T00:33:30.612Z,14.56
2022-12-08T00:38:34.049Z,14.58
2022-12-08T00:43:37.685Z,14.53
2022-12-08T00:48:42.590Z,14.54
2022-12-08T00:53:46.071Z,14.61
2022-12-08T00:58:49.600Z,14.54
2022-12-08T01:03:54.683Z,14.55
2022-12-08T01:08:58.227Z,14.55
2022-12-08T01:14:01.756Z,14.54
2022-12-08T01:19:06.667Z,14.55
2022-12-08T01:24:12.162Z,14.57
2022-12-08T01:29:16.177Z,14.55
2022-12-08T01:34:21.094Z,14.52
2022-12-08T01:39:24.529Z,14.56
2022-12-08T01:44:57.027Z,14.57
2022-12-08T01:50:02.400Z,14.55
2022-12-08T01:55:08.731Z,14.57
2022-12-08T02:00:14.453Z,14.54
2022-12-08T02:05:20.993Z,14.60
2022-12-08T02:10:25.567Z,14.56
2022-12-08T02:15:35.428Z,14.57
2022-12-08T02:20:46.081Z,14.57
2022-12-08T02:26:17.818Z,14.54
2022-12-08T02:31:27.039Z,14.58
2022-12-08T02:36:38.059Z,14.56
2022-12-08T02:41:48.268Z,14.57
2022-12-08T02:46:54.465Z,14.56
2022-12-08T02:52:07.935Z,14.56
2022-12-08T02:57:23.107Z,14.54
2022-12-08T03:02:38.745Z,14.53
2022-12-08T03:07:49.046Z,14.54
2022-12-08T03:12:56.855Z,14.53
2022-12-08T03:18:01.434Z,14.52
2022-12-08T03:23:08.865Z,14.55
2022-12-08T03:28:13.028Z,14.56
2022-12-08T03:33:17.809Z,14.58
2022-12-08T03:38:23.637Z,14.56
2022-12-08T03:43:27.086Z,14.55
2022-12-08T03:48:30.614Z,14.56
2022-12-08T03:53:35.503Z,14.57
2022-12-08T03:58:38.985Z,14.58
2022-12-08T04:03:42.413Z,14.53
2022-12-08T04:08:47.451Z,14.54
2022-12-08T04:13:50.964Z,14.55
2022-12-08T04:18:54.536Z,14.56
2022-12-08T04:24:01.439Z,14.56
2022-12-08T04:29:05.188Z,14.49
2022-12-08T04:34:08.697Z,14.53
2022-12-08T04:39:13.619Z,14.60
2022-12-08T04:44:17.117Z,14.58
2022-12-08T04:49:20.713Z,14.54
2022-12-08T04:54:25.630Z,14.58
2022-12-08T04:59:29.106Z,14.52
2022-12-08T05:04:32.577Z,14.52
2022-12-08T05:09:37.421Z,14.50
2022-12-08T05:14:40.778Z,14.57
2022-12-08T05:19:44.239Z,14.55
2022-12-08T05:24:48.996Z,14.53
2022-12-08T05:29:52.336Z,14.54
2022-12-08T05:34:55.835Z,14.60
2022-12-08T05:40:00.977Z,14.49
2022-12-08T05:45:05.203Z,14.57
2022-12-08T05:50:09.511Z,14.57
2022-12-08T05:55:14.293Z,14.53
2022-12-08T06:00:18.602Z,14.59
2022-12-08T06:05:21.965Z,14.59
2022-12-08T06:10:26.737Z,14.52
2022-12-08T06:15:30.077Z,14.55
2022-12-08T06:20:33.611Z,14.55
2022-12-08T06:25:38.363Z,14.55
2022-12-08T06:30:41.703Z,14.51
2022-12-08T06:35:45.087Z,14.55
2022-12-08T06:40:56.700Z,14.52
2022-12-08T06:46:00.189Z,14.51
2022-12-08T06:51:08.100Z,14.53
2022-12-08T06:56:13.564Z,14.54
2022-12-08T07:01:16.985Z,14.55
2022-12-08T07:06:23.132Z,14.52
2022-12-08T07:11:27.879Z,14.54
2022-12-08T07:16:31.525Z,14.54
2022-12-08T07:21:35.015Z,14.52
2022-12-08T07:26:40.022Z,14.54
2022-12-08T07:31:43.392Z,14.50
2022-12-08T07:36:46.754Z,14.52
2022-12-08T07:41:51.530Z,14.50
2022-12-08T07:46:54.893Z,14.54
2022-12-08T07:51:58.251Z,14.54
2022-12-08T07:57:06.119Z,14.58
2022-12-08T08:02:26.118Z,14.57
2022-12-08T08:07:32.023Z,14.54
2022-12-08T08:12:37.159Z,14.53
2022-12-08T08:17:40.593Z,14.53
2022-12-08T08:22:44.003Z,14.54
2022-12-08T08:27:48.758Z,14.53
2022-12-08T08:32:52.494Z,14.51
2022-12-08T08:37:55.836Z,14.51
2022-12-08T08:43:02.056Z,14.49
2022-12-08T08:48:05.730Z,14.54
2022-12-08T08:53:09.089Z,14.48
2022-12-08T08:58:13.886Z,14.56
2022-12-08T09:03:18.981Z,14.54
2022-12-08T09:08:22.437Z,14.56
2022-12-08T09:13:27.343Z,14.59
2022-12-08T09:18:30.988Z,14.55
2022-12-08T09:23:35.726Z,14.55
2022-12-08T09:28:46.218Z,14.57
2022-12-08T09:33:51.724Z,14.56
2022-12-08T09:38:55.153Z,14.55
2022-12-08T09:44:08.468Z,14.63
2022-12-08T09:49:15.924Z,14.64
2022-12-08T09:54:22.406Z,14.63
2022-12-08T09:59:31.014Z,14.65
2022-12-08T10:04:36.331Z,14.65
2022-12-08T10:09:43.453Z,14.70
2022-12-08T10:14:50.989Z,14.69
2022-12-08T10:20:02.068Z,14.72
2022-12-08T10:25:11.331Z,14.76
2022-12-08T10:30:18.452Z,14.75
2022-12-08T10:35:23.265Z,14.73
2022-12-08T10:40:30.003Z,14.74
2022-12-08T10:45:41.896Z,14.67
2022-12-08T10:50:46.452Z,14.73
2022-12-08T10:55:51.444Z,14.72
2022-12-08T11:00:58.556Z,14.72
2022-12-08T11:06:10.504Z,14.74
2022-12-08T11:11:14.906Z,14.76
2022-12-08T11:16:20.673Z,14.72
2022-12-08T11:21:33.039Z,14.70
2022-12-08T11:26:38.644Z,14.71
2022-12-08T11:31:47.187Z,14.72
2022-12-08T11:36:51.256Z,14.70
2022-12-08T11:41:55.238Z,14.70
2022-12-08T11:47:03.532Z,14.71
2022-12-08T11:52:12.390Z,14.56
2022-12-08T11:57:20.843Z,14.83
2022-12-08T12:02:27.891Z,14.82
2022-12-08T12:07:53.840Z,14.83
2022-12-08T12:13:12.477Z,15.01
2022-12-08T12:18:23.764Z,14.92
2022-12-08T12:23:32.856Z,14.97
2022-12-08T12:28:42.110Z,15.07
2022-12-08T12:33:48.020Z,15.25
2022-12-08T12:39:09.444Z,15.40
2022-12-08T12:44:39.713Z,15.52
2022-12-08T12:50:17.480Z,15.58
2022-12-08T12:55:53.458Z,15.58
2022-12-08T13:01:38.042Z,15.69
2022-12-08T13:06:46.272Z,15.72
2022-12-08T13:11:52.827Z,15.71
2022-12-08T13:16:57.799Z,15.76
2022-12-08T13:22:02.855Z,15.75
2022-12-08T13:27:34.770Z,15.85
2022-12-08T13:33:17.824Z,15.95
2022-12-08T13:38:24.380Z,15.92
2022-12-08T13:43:47.333Z,15.91
2022-12-08T13:55:49.729Z,15.85
2022-12-08T13:59:51.468Z,15.93
2022-12-08T14:10:24.040Z,15.99
2022-12-08T14:15:30.219Z,16.07
2022-12-08T15:17:35.998Z,15.24
2022-12-08T15:22:40.332Z,15.12
2022-12-08T15:27:50.143Z,15.15
2022-12-08T15:32:56.472Z,15.16
2022-12-08T15:37:59.933Z,15.37
2022-12-08T15:43:03.309Z,15.04
2022-12-08T15:48:08.251Z,15.15
2022-12-08T15:53:11.970Z,15.22
2022-12-08T16:09:16.547Z,15.29
2022-12-08T16:15:01.991Z,15.31
2022-12-08T16:19:45.664Z,15.32
2022-12-08T16:24:49.035Z,15.34
2022-12-08T16:29:52.613Z,15.38
2022-12-08T16:34:57.391Z,15.38
2022-12-08T16:40:00.963Z,15.39
2022-12-08T16:45:05.643Z,15.39
2022-12-08T16:50:13.529Z,15.42
2022-12-08T16:55:18.591Z,15.42
2022-12-08T17:00:23.890Z,15.44
2022-12-08T17:05:28.740Z,15.47
2022-12-08T17:10:34.491Z,15.48
2022-12-08T17:15:38.086Z,15.51
2022-12-08T17:20:42.853Z,15.51
2022-12-08T17:25:46.223Z,15.49
2022-12-08T17:30:49.585Z,15.51
2022-12-08T17:35:55.588Z,15.57
2022-12-08T17:41:04.103Z,15.68
2022-12-08T17:46:07.953Z,15.72
2022-12-08T17:51:12.878Z,15.69
2022-12-08T17:56:17.959Z,15.72
2022-12-08T18:01:21.528Z,15.72
2022-12-08T18:06:30.950Z,15.77
2022-12-08T18:11:35.495Z,15.76
2022-12-08T18:16:40.906Z,15.75
2022-12-08T18:21:46.039Z,15.77
2022-12-08T18:26:50.915Z,15.78
2022-12-08T18:31:54.411Z,15.81
2022-12-08T18:36:59.362Z,15.83
2022-12-08T18:42:23.062Z,15.87
2022-12-08T18:47:26.606Z,15.87
2022-12-08T18:52:32.493Z,15.81
2022-12-08T18:57:36.378Z,15.82
2022-12-08T19:02:40.280Z,15.89
2022-12-08T19:07:45.878Z,15.98
2022-12-08T19:12:51.393Z,15.91
2022-12-08T19:17:54.866Z,15.90
2022-12-08T19:22:59.696Z,15.87
2022-12-08T19:28:03.213Z,15.90
2022-12-08T19:33:06.725Z,15.92
2022-12-08T19:38:11.585Z,15.89
2022-12-08T19:43:46.878Z,15.89
2022-12-08T19:48:50.383Z,15.98
2022-12-08T19:53:55.539Z,16.00
2022-12-08T19:58:59.063Z,16.16
2022-12-08T20:04:02.560Z,16.10
2022-12-08T20:09:08.389Z,16.06
2022-12-08T20:14:11.864Z,16.01
2022-12-08T20:19:15.366Z,15.98
2022-12-08T20:24:20.274Z,16.02
2022-12-08T20:29:23.709Z,16.01
2022-12-08T20:34:27.282Z,16.03
2022-12-08T20:39:32.166Z,16.10
2022-12-08T20:44:35.660Z,16.20
2022-12-08T20:49:39.316Z,16.13
2022-12-08T20:54:44.328Z,16.05
2022-12-08T20:59:47.776Z,16.11
2022-12-08T21:04:51.458Z,16.08
2022-12-08T21:09:56.391Z,16.07
2022-12-08T21:14:59.936Z,16.10
2022-12-08T21:20:03.721Z,16.13
2022-12-08T21:25:10.156Z,16.12
2022-12-08T21:30:14.826Z,16.17
2022-12-08T21:35:18.420Z,16.11
2022-12-08T21:40:23.277Z,16.17
2022-12-08T21:45:26.782Z,16.20
2022-12-08T21:50:30.328Z,16.25
2022-12-08T21:55:35.343Z,16.21
2022-12-08T22:00:39.075Z,16.26
2022-12-08T22:05:43.141Z,16.25
2022-12-08T22:10:49.972Z,16.24
2022-12-08T22:15:57.618Z,16.26
2022-12-08T22:21:01.527Z,16.28
2022-12-08T22:26:07.513Z,16.26
2022-12-08T22:31:11.727Z,16.27
2022-12-08T22:36:16.920Z,16.29
2022-12-08T22:41:22.287Z,16.32
2022-12-08T22:46:27.931Z,16.30
2022-12-08T22:51:31.485Z,16.28
2022-12-08T22:56:36.571Z,16.32
2022-12-08T23:01:40.136Z,16.35
2022-12-08T23:06:43.604Z,16.34
2022-12-08T23:11:48.507Z,16.37
2022-12-08T23:16:52.237Z,16.34
2022-12-08T23:21:55.707Z,16.45
2022-12-08T23:27:00.728Z,16.46
2022-12-08T23:32:04.551Z,16.67
2022-12-08T23:37:08.191Z,16.68
2022-12-08T23:42:13.322Z,16.88
2022-12-08T23:47:17.182Z,16.58
2022-12-08T23:52:20.807Z,16.74
2022-12-08T23:57:25.897Z,16.67
